sensor_id;sensor_type;location;lat;lon;timestamp;pressure;altitude;pressure_sealevel;temperature;humidity
45991;BME280;31721;41.740;-88.000;2023-02-18T00:01:52;99993.73;;;-3.73;42.98
45991;BME280;31721;41.740;-88.000;2023-02-18T00:04:19;100002.48;;;-3.55;43.17
45991;BME280;31721;41.740;-88.000;2023-02-18T00:06:47;100005.70;;;-3.52;43.19
45991;BME280;31721;41.740;-88.000;2023-02-18T00:09:15;100010.59;;;-3.53;43.20
45991;BME280;31721;41.740;-88.000;2023-02-18T00:11:43;100014.62;;;-3.49;43.37
45991;BME280;31721;41.740;-88.000;2023-02-18T00:14:13;100009.01;;;-3.52;43.47
45991;BME280;31721;41.740;-88.000;2023-02-18T00:16:42;100012.19;;;-3.57;43.54
45991;BME280;31721;41.740;-88.000;2023-02-18T00:19:13;100012.66;;;-3.45;43.48
45991;BME280;31721;41.740;-88.000;2023-02-18T00:21:41;100020.58;;;-3.20;43.47
45991;BME280;31721;41.740;-88.000;2023-02-18T00:24:11;100018.31;;;-3.18;43.36
45991;BME280;31721;41.740;-88.000;2023-02-18T00:26:41;100010.26;;;-3.48;43.53
45991;BME280;31721;41.740;-88.000;2023-02-18T00:29:09;100004.54;;;-3.47;43.60
45991;BME280;31721;41.740;-88.000;2023-02-18T00:31:38;100003.34;;;-3.55;43.81
45991;BME280;31721;41.740;-88.000;2023-02-18T00:34:06;100008.08;;;-3.34;44.00
45991;BME280;31721;41.740;-88.000;2023-02-18T00:36:35;100011.00;;;-3.47;44.02
45991;BME280;31721;41.740;-88.000;2023-02-18T00:39:08;100009.70;;;-3.51;44.23
45991;BME280;31721;41.740;-88.000;2023-02-18T00:41:37;100008.82;;;-3.75;44.41
45991;BME280;31721;41.740;-88.000;2023-02-18T00:44:06;100009.48;;;-3.83;44.68
45991;BME280;31721;41.740;-88.000;2023-02-18T00:46:34;100003.40;;;-3.80;44.57
45991;BME280;31721;41.740;-88.000;2023-02-18T00:49:03;99999.40;;;-3.96;44.90
45991;BME280;31721;41.740;-88.000;2023-02-18T00:51:32;100000.45;;;-4.01;45.33
45991;BME280;31721;41.740;-88.000;2023-02-18T00:54:00;100000.00;;;-4.29;45.78
45991;BME280;31721;41.740;-88.000;2023-02-18T00:56:27;99999.46;;;-4.50;45.74
45991;BME280;31721;41.740;-88.000;2023-02-18T00:58:55;99995.92;;;-4.67;46.59
45991;BME280;31721;41.740;-88.000;2023-02-18T01:01:23;99997.47;;;-4.70;46.60
45991;BME280;31721;41.740;-88.000;2023-02-18T01:03:51;99993.32;;;-4.79;47.12
45991;BME280;31721;41.740;-88.000;2023-02-18T01:06:19;99990.73;;;-4.68;47.53
45991;BME280;31721;41.740;-88.000;2023-02-18T01:08:48;99987.07;;;-5.04;48.04
45991;BME280;31721;41.740;-88.000;2023-02-18T01:11:16;99981.33;;;-4.98;47.58
45991;BME280;31721;41.740;-88.000;2023-02-18T01:13:44;99979.53;;;-4.85;47.89
45991;BME280;31721;41.740;-88.000;2023-02-18T01:16:12;99980.54;;;-4.82;47.46
45991;BME280;31721;41.740;-88.000;2023-02-18T01:18:40;99976.16;;;-4.98;47.40
45991;BME280;31721;41.740;-88.000;2023-02-18T01:21:08;99981.55;;;-4.92;48.00
45991;BME280;31721;41.740;-88.000;2023-02-18T01:23:37;99985.58;;;-4.95;48.67
45991;BME280;31721;41.740;-88.000;2023-02-18T01:26:06;99988.73;;;-4.88;48.02
45991;BME280;31721;41.740;-88.000;2023-02-18T01:28:35;99986.47;;;-4.87;48.51
45991;BME280;31721;41.740;-88.000;2023-02-18T01:31:05;99985.09;;;-5.16;48.34
45991;BME280;31721;41.740;-88.000;2023-02-18T01:33:33;99984.10;;;-5.24;48.46
45991;BME280;31721;41.740;-88.000;2023-02-18T01:36:01;99979.44;;;-5.03;48.32
45991;BME280;31721;41.740;-88.000;2023-02-18T01:38:28;99982.57;;;-4.92;48.92
45991;BME280;31721;41.740;-88.000;2023-02-18T01:40:56;99978.87;;;-4.84;48.80
45991;BME280;31721;41.740;-88.000;2023-02-18T01:43:24;99982.39;;;-4.74;48.65
45991;BME280;31721;41.740;-88.000;2023-02-18T01:45:58;99982.18;;;-4.57;48.61
45991;BME280;31721;41.740;-88.000;2023-02-18T01:48:30;99981.44;;;-4.57;48.83
45991;BME280;31721;41.740;-88.000;2023-02-18T01:51:02;99981.73;;;-4.76;48.42
45991;BME280;31721;41.740;-88.000;2023-02-18T01:53:37;99983.20;;;-4.57;48.69
45991;BME280;31721;41.740;-88.000;2023-02-18T01:56:11;99984.96;;;-4.57;48.75
45991;BME280;31721;41.740;-88.000;2023-02-18T01:58:40;99984.36;;;-4.72;48.81
45991;BME280;31721;41.740;-88.000;2023-02-18T02:01:09;99985.94;;;-4.68;49.14
45991;BME280;31721;41.740;-88.000;2023-02-18T02:03:37;99979.74;;;-4.39;48.61
45991;BME280;31721;41.740;-88.000;2023-02-18T02:06:13;99976.61;;;-4.69;48.77
45991;BME280;31721;41.740;-88.000;2023-02-18T02:08:42;99981.79;;;-4.53;49.01
45991;BME280;31721;41.740;-88.000;2023-02-18T02:11:20;99982.76;;;-4.69;48.88
45991;BME280;31721;41.740;-88.000;2023-02-18T02:14:05;99979.70;;;-4.65;49.15
45991;BME280;31721;41.740;-88.000;2023-02-18T02:16:39;99972.17;;;-4.72;48.85
45991;BME280;31721;41.740;-88.000;2023-02-18T02:19:28;99964.47;;;-4.82;48.87
45991;BME280;31721;41.740;-88.000;2023-02-18T02:22:28;99956.68;;;-4.86;49.15
45991;BME280;31721;41.740;-88.000;2023-02-18T02:25:07;99961.05;;;-4.98;49.48
45991;BME280;31721;41.740;-88.000;2023-02-18T02:28:02;99969.08;;;-5.05;49.60
45991;BME280;31721;41.740;-88.000;2023-02-18T02:30:46;99964.05;;;-4.98;49.42
45991;BME280;31721;41.740;-88.000;2023-02-18T02:33:38;99959.78;;;-5.06;49.92
45991;BME280;31721;41.740;-88.000;2023-02-18T02:36:12;99957.91;;;-4.95;49.74
45991;BME280;31721;41.740;-88.000;2023-02-18T02:38:51;99954.34;;;-5.15;50.28
45991;BME280;31721;41.740;-88.000;2023-02-18T02:41:31;99951.71;;;-4.95;49.98
45991;BME280;31721;41.740;-88.000;2023-02-18T02:44:11;99952.10;;;-4.90;50.08
45991;BME280;31721;41.740;-88.000;2023-02-18T02:46:46;99948.34;;;-4.80;50.34
45991;BME280;31721;41.740;-88.000;2023-02-18T02:49:27;99946.90;;;-4.92;50.47
45991;BME280;31721;41.740;-88.000;2023-02-18T02:52:02;99952.27;;;-4.97;50.06
45991;BME280;31721;41.740;-88.000;2023-02-18T02:54:31;99958.06;;;-4.79;50.20
45991;BME280;31721;41.740;-88.000;2023-02-18T02:57:42;99956.20;;;-4.86;50.21
45991;BME280;31721;41.740;-88.000;2023-02-18T03:00:12;99957.93;;;-5.15;50.87
45991;BME280;31721;41.740;-88.000;2023-02-18T03:02:55;99958.61;;;-4.87;50.56
45991;BME280;31721;41.740;-88.000;2023-02-18T03:05:35;99957.90;;;-4.84;50.49
45991;BME280;31721;41.740;-88.000;2023-02-18T03:08:18;99948.79;;;-4.81;50.23
45991;BME280;31721;41.740;-88.000;2023-02-18T03:10:57;99943.71;;;-4.99;50.39
45991;BME280;31721;41.740;-88.000;2023-02-18T03:13:44;99941.34;;;-4.89;50.52
45991;BME280;31721;41.740;-88.000;2023-02-18T03:16:23;99943.76;;;-4.81;50.62
45991;BME280;31721;41.740;-88.000;2023-02-18T03:19:00;99942.80;;;-4.78;50.28
45991;BME280;31721;41.740;-88.000;2023-02-18T03:21:32;99946.89;;;-4.70;50.49
45991;BME280;31721;41.740;-88.000;2023-02-18T03:24:07;99948.93;;;-4.68;50.45
45991;BME280;31721;41.740;-88.000;2023-02-18T03:26:41;99948.17;;;-4.68;50.61
45991;BME280;31721;41.740;-88.000;2023-02-18T03:29:13;99946.62;;;-4.59;50.39
45991;BME280;31721;41.740;-88.000;2023-02-18T03:31:45;99946.94;;;-4.64;50.48
45991;BME280;31721;41.740;-88.000;2023-02-18T03:34:18;99946.07;;;-4.99;50.89
45991;BME280;31721;41.740;-88.000;2023-02-18T03:36:49;99947.64;;;-4.62;50.83
45991;BME280;31721;41.740;-88.000;2023-02-18T03:39:19;99946.68;;;-4.68;50.55
45991;BME280;31721;41.740;-88.000;2023-02-18T03:41:48;99941.25;;;-4.69;50.65
45991;BME280;31721;41.740;-88.000;2023-02-18T03:44:17;99933.99;;;-4.94;50.99
45991;BME280;31721;41.740;-88.000;2023-02-18T03:46:44;99928.41;;;-4.68;50.87
45991;BME280;31721;41.740;-88.000;2023-02-18T03:49:13;99932.28;;;-4.66;50.74
45991;BME280;31721;41.740;-88.000;2023-02-18T03:51:42;99932.25;;;-4.65;50.81
45991;BME280;31721;41.740;-88.000;2023-02-18T03:54:12;99927.98;;;-4.96;50.84
45991;BME280;31721;41.740;-88.000;2023-02-18T03:56:40;99926.06;;;-4.85;51.26
45991;BME280;31721;41.740;-88.000;2023-02-18T03:59:09;99922.67;;;-4.76;51.28
45991;BME280;31721;41.740;-88.000;2023-02-18T04:01:39;99917.78;;;-4.41;51.31
45991;BME280;31721;41.740;-88.000;2023-02-18T04:04:07;99911.74;;;-4.85;52.20
45991;BME280;31721;41.740;-88.000;2023-02-18T04:06:35;99906.87;;;-4.79;51.46
45991;BME280;31721;41.740;-88.000;2023-02-18T04:09:03;99907.82;;;-4.97;51.31
45991;BME280;31721;41.740;-88.000;2023-02-18T04:11:31;99904.06;;;-4.68;51.80
45991;BME280;31721;41.740;-88.000;2023-02-18T04:13:59;99899.35;;;-4.97;51.72
45991;BME280;31721;41.740;-88.000;2023-02-18T04:16:27;99891.33;;;-4.91;51.90
45991;BME280;31721;41.740;-88.000;2023-02-18T04:18:54;99885.05;;;-4.98;52.11
45991;BME280;31721;41.740;-88.000;2023-02-18T04:21:22;99884.77;;;-4.97;52.06
45991;BME280;31721;41.740;-88.000;2023-02-18T04:23:50;99880.14;;;-4.96;52.03
45991;BME280;31721;41.740;-88.000;2023-02-18T04:26:18;99875.33;;;-5.07;52.29
45991;BME280;31721;41.740;-88.000;2023-02-18T04:28:46;99869.87;;;-5.12;52.17
45991;BME280;31721;41.740;-88.000;2023-02-18T04:31:13;99864.94;;;-5.23;52.55
45991;BME280;31721;41.740;-88.000;2023-02-18T04:33:41;99860.67;;;-5.23;53.09
45991;BME280;31721;41.740;-88.000;2023-02-18T04:36:09;99862.28;;;-5.14;52.84
45991;BME280;31721;41.740;-88.000;2023-02-18T04:38:37;99863.86;;;-4.99;52.59
45991;BME280;31721;41.740;-88.000;2023-02-18T04:41:04;99861.62;;;-4.99;52.56
45991;BME280;31721;41.740;-88.000;2023-02-18T04:43:32;99856.95;;;-4.63;52.37
45991;BME280;31721;41.740;-88.000;2023-02-18T04:46:00;99856.90;;;-4.95;52.04
45991;BME280;31721;41.740;-88.000;2023-02-18T04:48:28;99854.06;;;-4.80;52.64
45991;BME280;31721;41.740;-88.000;2023-02-18T04:50:56;99862.59;;;-5.05;52.62
45991;BME280;31721;41.740;-88.000;2023-02-18T04:53:24;99861.32;;;-4.91;52.52
45991;BME280;31721;41.740;-88.000;2023-02-18T04:55:53;99859.37;;;-4.68;52.22
45991;BME280;31721;41.740;-88.000;2023-02-18T04:58:21;99849.33;;;-4.82;52.05
45991;BME280;31721;41.740;-88.000;2023-02-18T05:00:49;99845.97;;;-4.74;52.16
45991;BME280;31721;41.740;-88.000;2023-02-18T05:03:17;99844.55;;;-4.97;52.48
45991;BME280;31721;41.740;-88.000;2023-02-18T05:05:44;99846.03;;;-4.74;52.03
45991;BME280;31721;41.740;-88.000;2023-02-18T05:08:12;99847.86;;;-4.64;51.97
45991;BME280;31721;41.740;-88.000;2023-02-18T05:10:40;99855.24;;;-4.62;51.89
45991;BME280;31721;41.740;-88.000;2023-02-18T05:13:08;99856.62;;;-4.53;51.89
45991;BME280;31721;41.740;-88.000;2023-02-18T05:15:35;99848.55;;;-4.24;51.50
45991;BME280;31721;41.740;-88.000;2023-02-18T05:18:04;99834.92;;;-4.84;52.68
45991;BME280;31721;41.740;-88.000;2023-02-18T05:20:32;99829.98;;;-4.74;51.98
45991;BME280;31721;41.740;-88.000;2023-02-18T05:23:00;99832.07;;;-4.50;51.63
45991;BME280;31721;41.740;-88.000;2023-02-18T05:25:28;99825.65;;;-4.67;51.87
45991;BME280;31721;41.740;-88.000;2023-02-18T05:27:55;99826.49;;;-4.37;51.33
45991;BME280;31721;41.740;-88.000;2023-02-18T05:30:23;99819.30;;;-4.58;51.44
45991;BME280;31721;41.740;-88.000;2023-02-18T05:32:51;99818.15;;;-4.49;51.31
45991;BME280;31721;41.740;-88.000;2023-02-18T05:35:18;99812.59;;;-4.64;51.45
45991;BME280;31721;41.740;-88.000;2023-02-18T05:37:46;99819.79;;;-4.45;51.14
45991;BME280;31721;41.740;-88.000;2023-02-18T05:40:14;99817.22;;;-4.45;51.39
45991;BME280;31721;41.740;-88.000;2023-02-18T05:42:42;99811.15;;;-4.72;51.83
45991;BME280;31721;41.740;-88.000;2023-02-18T05:45:09;99806.94;;;-4.75;51.68
45991;BME280;31721;41.740;-88.000;2023-02-18T05:47:37;99811.62;;;-4.75;51.86
45991;BME280;31721;41.740;-88.000;2023-02-18T05:50:06;99804.33;;;-4.92;51.91
45991;BME280;31721;41.740;-88.000;2023-02-18T05:52:34;99805.22;;;-5.13;52.15
45991;BME280;31721;41.740;-88.000;2023-02-18T05:55:03;99801.61;;;-4.61;51.54
45991;BME280;31721;41.740;-88.000;2023-02-18T05:57:31;99802.01;;;-4.73;51.67
45991;BME280;31721;41.740;-88.000;2023-02-18T05:59:59;99799.60;;;-4.96;52.05
45991;BME280;31721;41.740;-88.000;2023-02-18T06:02:27;99803.68;;;-4.99;51.91
45991;BME280;31721;41.740;-88.000;2023-02-18T06:04:54;99805.13;;;-4.55;51.40
45991;BME280;31721;41.740;-88.000;2023-02-18T06:07:22;99795.76;;;-4.51;51.29
45991;BME280;31721;41.740;-88.000;2023-02-18T06:09:50;99797.24;;;-4.62;51.09
45991;BME280;31721;41.740;-88.000;2023-02-18T06:12:17;99786.59;;;-4.88;51.31
45991;BME280;31721;41.740;-88.000;2023-02-18T06:14:46;99787.24;;;-4.78;51.37
45991;BME280;31721;41.740;-88.000;2023-02-18T06:17:14;99778.11;;;-4.92;51.42
45991;BME280;31721;41.740;-88.000;2023-02-18T06:19:42;99778.78;;;-5.15;51.78
45991;BME280;31721;41.740;-88.000;2023-02-18T06:22:10;99779.75;;;-5.05;51.39
45991;BME280;31721;41.740;-88.000;2023-02-18T06:24:38;99785.06;;;-5.01;51.86
45991;BME280;31721;41.740;-88.000;2023-02-18T06:27:06;99781.42;;;-4.84;51.39
45991;BME280;31721;41.740;-88.000;2023-02-18T06:29:34;99778.28;;;-4.74;51.45
45991;BME280;31721;41.740;-88.000;2023-02-18T06:32:02;99781.69;;;-4.81;51.63
45991;BME280;31721;41.740;-88.000;2023-02-18T06:34:29;99780.65;;;-4.85;51.58
45991;BME280;31721;41.740;-88.000;2023-02-18T06:36:57;99780.70;;;-4.64;51.36
45991;BME280;31721;41.740;-88.000;2023-02-18T06:39:25;99785.76;;;-4.71;51.39
45991;BME280;31721;41.740;-88.000;2023-02-18T06:41:53;99776.66;;;-4.68;51.41
45991;BME280;31721;41.740;-88.000;2023-02-18T06:44:21;99774.66;;;-5.15;51.95
45991;BME280;31721;41.740;-88.000;2023-02-18T06:46:48;99779.88;;;-4.95;51.89
45991;BME280;31721;41.740;-88.000;2023-02-18T06:49:16;99780.97;;;-4.60;51.33
45991;BME280;31721;41.740;-88.000;2023-02-18T06:51:44;99779.34;;;-4.95;51.87
45991;BME280;31721;41.740;-88.000;2023-02-18T06:54:11;99780.84;;;-4.71;51.43
45991;BME280;31721;41.740;-88.000;2023-02-18T06:56:39;99774.45;;;-5.01;51.80
45991;BME280;31721;41.740;-88.000;2023-02-18T06:59:12;99771.58;;;-4.70;51.71
45991;BME280;31721;41.740;-88.000;2023-02-18T07:01:40;99774.68;;;-4.65;51.65
45991;BME280;31721;41.740;-88.000;2023-02-18T07:04:08;99770.40;;;-4.55;51.62
45991;BME280;31721;41.740;-88.000;2023-02-18T07:06:35;99766.39;;;-4.65;51.64
45991;BME280;31721;41.740;-88.000;2023-02-18T07:09:03;99771.57;;;-4.44;51.49
45991;BME280;31721;41.740;-88.000;2023-02-18T07:11:31;99769.79;;;-4.58;51.50
45991;BME280;31721;41.740;-88.000;2023-02-18T07:13:59;99770.33;;;-4.59;51.47
45991;BME280;31721;41.740;-88.000;2023-02-18T07:16:26;99771.86;;;-4.71;51.68
45991;BME280;31721;41.740;-88.000;2023-02-18T07:18:54;99767.56;;;-4.77;51.79
45991;BME280;31721;41.740;-88.000;2023-02-18T07:21:22;99768.12;;;-4.73;51.77
45991;BME280;31721;41.740;-88.000;2023-02-18T07:23:50;99763.94;;;-4.60;51.50
45991;BME280;31721;41.740;-88.000;2023-02-18T07:26:18;99756.22;;;-4.51;51.45
45991;BME280;31721;41.740;-88.000;2023-02-18T07:28:45;99750.32;;;-4.58;51.66
45991;BME280;31721;41.740;-88.000;2023-02-18T07:31:13;99741.89;;;-4.61;51.91
45991;BME280;31721;41.740;-88.000;2023-02-18T07:33:41;99750.03;;;-4.49;51.78
45991;BME280;31721;41.740;-88.000;2023-02-18T07:36:09;99748.72;;;-4.70;52.01
45991;BME280;31721;41.740;-88.000;2023-02-18T07:38:37;99745.28;;;-4.62;51.80
45991;BME280;31721;41.740;-88.000;2023-02-18T07:41:05;99747.06;;;-4.48;51.66
45991;BME280;31721;41.740;-88.000;2023-02-18T07:43:32;99748.33;;;-4.49;51.95
45991;BME280;31721;41.740;-88.000;2023-02-18T07:46:05;99748.70;;;-4.22;51.65
45991;BME280;31721;41.740;-88.000;2023-02-18T07:48:32;99740.89;;;-4.27;51.72
45991;BME280;31721;41.740;-88.000;2023-02-18T07:51:00;99736.80;;;-4.25;51.78
45991;BME280;31721;41.740;-88.000;2023-02-18T07:53:31;99735.99;;;-4.16;51.48
45991;BME280;31721;41.740;-88.000;2023-02-18T07:55:59;99735.57;;;-4.11;51.25
45991;BME280;31721;41.740;-88.000;2023-02-18T07:58:29;99733.94;;;-4.35;51.65
45991;BME280;31721;41.740;-88.000;2023-02-18T08:00:57;99731.79;;;-4.09;51.60
45991;BME280;31721;41.740;-88.000;2023-02-18T08:03:26;99733.90;;;-4.25;52.03
45991;BME280;31721;41.740;-88.000;2023-02-18T08:05:55;99736.64;;;-4.11;51.79
45991;BME280;31721;41.740;-88.000;2023-02-18T08:08:25;99733.35;;;-4.44;52.14
45991;BME280;31721;41.740;-88.000;2023-02-18T08:10:55;99728.63;;;-4.36;52.03
45991;BME280;31721;41.740;-88.000;2023-02-18T08:13:24;99725.56;;;-4.52;51.92
45991;BME280;31721;41.740;-88.000;2023-02-18T08:15:54;99724.90;;;-4.26;52.08
45991;BME280;31721;41.740;-88.000;2023-02-18T08:18:23;99718.26;;;-4.43;52.28
45991;BME280;31721;41.740;-88.000;2023-02-18T08:20:52;99719.60;;;-4.31;52.33
45991;BME280;31721;41.740;-88.000;2023-02-18T08:23:21;99716.39;;;-4.36;52.23
45991;BME280;31721;41.740;-88.000;2023-02-18T08:25:50;99707.65;;;-4.86;53.49
45991;BME280;31721;41.740;-88.000;2023-02-18T08:28:19;99711.23;;;-4.30;52.35
45991;BME280;31721;41.740;-88.000;2023-02-18T08:30:48;99703.05;;;-4.22;52.47
45991;BME280;31721;41.740;-88.000;2023-02-18T08:33:17;99708.01;;;-4.41;52.28
45991;BME280;31721;41.740;-88.000;2023-02-18T08:35:46;99707.07;;;-4.31;52.08
45991;BME280;31721;41.740;-88.000;2023-02-18T08:38:15;99705.49;;;-4.22;52.31
45991;BME280;31721;41.740;-88.000;2023-02-18T08:40:42;99708.86;;;-4.29;52.41
45991;BME280;31721;41.740;-88.000;2023-02-18T08:43:10;99712.59;;;-4.50;53.47
45991;BME280;31721;41.740;-88.000;2023-02-18T08:45:39;99707.84;;;-4.32;52.59
45991;BME280;31721;41.740;-88.000;2023-02-18T08:48:08;99704.33;;;-4.71;53.50
45991;BME280;31721;41.740;-88.000;2023-02-18T08:50:37;99703.91;;;-4.37;52.79
45991;BME280;31721;41.740;-88.000;2023-02-18T08:53:04;99696.14;;;-4.10;52.50
45991;BME280;31721;41.740;-88.000;2023-02-18T08:55:33;99692.38;;;-3.98;52.25
45991;BME280;31721;41.740;-88.000;2023-02-18T08:58:01;99684.71;;;-4.25;52.38
45991;BME280;31721;41.740;-88.000;2023-02-18T09:00:30;99687.75;;;-4.08;52.30
45991;BME280;31721;41.740;-88.000;2023-02-18T09:02:58;99683.71;;;-4.44;53.00
45991;BME280;31721;41.740;-88.000;2023-02-18T09:05:26;99682.03;;;-4.49;53.09
45991;BME280;31721;41.740;-88.000;2023-02-18T09:07:54;99682.30;;;-4.25;52.59
45991;BME280;31721;41.740;-88.000;2023-02-18T09:10:21;99678.47;;;-4.37;52.73
45991;BME280;31721;41.740;-88.000;2023-02-18T09:12:49;99677.30;;;-4.08;52.52
45991;BME280;31721;41.740;-88.000;2023-02-18T09:15:17;99671.38;;;-4.29;52.72
45991;BME280;31721;41.740;-88.000;2023-02-18T09:17:45;99680.67;;;-3.95;52.21
45991;BME280;31721;41.740;-88.000;2023-02-18T09:20:13;99673.08;;;-4.00;52.30
45991;BME280;31721;41.740;-88.000;2023-02-18T09:22:41;99670.68;;;-4.18;52.50
45991;BME280;31721;41.740;-88.000;2023-02-18T09:25:08;99669.21;;;-4.14;52.69
45991;BME280;31721;41.740;-88.000;2023-02-18T09:27:36;99662.94;;;-4.27;52.95
45991;BME280;31721;41.740;-88.000;2023-02-18T09:30:05;99671.43;;;-4.18;52.76
45991;BME280;31721;41.740;-88.000;2023-02-18T09:32:32;99665.16;;;-4.28;53.16
45991;BME280;31721;41.740;-88.000;2023-02-18T09:35:00;99659.88;;;-4.22;52.85
45991;BME280;31721;41.740;-88.000;2023-02-18T09:37:33;99656.05;;;-3.99;52.66
45991;BME280;31721;41.740;-88.000;2023-02-18T09:40:01;99652.46;;;-3.88;52.45
45991;BME280;31721;41.740;-88.000;2023-02-18T09:42:31;99653.63;;;-4.11;52.81
45991;BME280;31721;41.740;-88.000;2023-02-18T09:45:02;99651.80;;;-3.91;52.69
45991;BME280;31721;41.740;-88.000;2023-02-18T09:47:34;99652.48;;;-3.93;52.60
45991;BME280;31721;41.740;-88.000;2023-02-18T09:50:07;99646.84;;;-3.72;52.31
45991;BME280;31721;41.740;-88.000;2023-02-18T09:52:39;99647.53;;;-3.89;52.59
45991;BME280;31721;41.740;-88.000;2023-02-18T09:55:17;99635.12;;;-3.96;52.68
45991;BME280;31721;41.740;-88.000;2023-02-18T09:57:48;99642.65;;;-3.85;52.74
45991;BME280;31721;41.740;-88.000;2023-02-18T10:00:20;99637.68;;;-4.09;52.95
45991;BME280;31721;41.740;-88.000;2023-02-18T10:02:54;99644.40;;;-4.06;52.84
45991;BME280;31721;41.740;-88.000;2023-02-18T10:05:23;99640.19;;;-3.85;52.72
45991;BME280;31721;41.740;-88.000;2023-02-18T10:07:55;99637.96;;;-3.68;52.51
45991;BME280;31721;41.740;-88.000;2023-02-18T10:10:31;99632.96;;;-3.67;52.40
45991;BME280;31721;41.740;-88.000;2023-02-18T10:13:02;99629.28;;;-3.96;52.74
45991;BME280;31721;41.740;-88.000;2023-02-18T10:15:31;99630.34;;;-4.00;52.89
45991;BME280;31721;41.740;-88.000;2023-02-18T10:17:59;99631.56;;;-3.38;52.25
45991;BME280;31721;41.740;-88.000;2023-02-18T10:20:29;99621.46;;;-3.70;52.34
45991;BME280;31721;41.740;-88.000;2023-02-18T10:23:00;99619.02;;;-3.34;52.19
45991;BME280;31721;41.740;-88.000;2023-02-18T10:25:30;99611.26;;;-3.53;52.16
45991;BME280;31721;41.740;-88.000;2023-02-18T10:27:59;99612.43;;;-3.20;51.88
45991;BME280;31721;41.740;-88.000;2023-02-18T10:30:32;99606.38;;;-3.36;51.88
45991;BME280;31721;41.740;-88.000;2023-02-18T10:33:16;99604.26;;;-3.36;51.76
45991;BME280;31721;41.740;-88.000;2023-02-18T10:35:53;99600.37;;;-3.59;51.98
45991;BME280;31721;41.740;-88.000;2023-02-18T10:38:31;99596.49;;;-3.51;51.99
45991;BME280;31721;41.740;-88.000;2023-02-18T10:41:08;99607.69;;;-3.83;52.33
45991;BME280;31721;41.740;-88.000;2023-02-18T10:43:44;99601.25;;;-3.87;52.69
45991;BME280;31721;41.740;-88.000;2023-02-18T10:46:21;99603.52;;;-3.61;52.39
45991;BME280;31721;41.740;-88.000;2023-02-18T10:49:03;99601.31;;;-3.46;52.11
45991;BME280;31721;41.740;-88.000;2023-02-18T10:51:33;99613.64;;;-3.37;52.08
45991;BME280;31721;41.740;-88.000;2023-02-18T10:54:03;99613.62;;;-3.17;51.61
45991;BME280;31721;41.740;-88.000;2023-02-18T10:56:36;99618.63;;;-3.26;51.85
45991;BME280;31721;41.740;-88.000;2023-02-18T10:59:11;99613.15;;;-3.13;51.69
45991;BME280;31721;41.740;-88.000;2023-02-18T11:01:39;99614.09;;;-3.34;52.00
45991;BME280;31721;41.740;-88.000;2023-02-18T11:04:12;99617.25;;;-3.02;51.52
45991;BME280;31721;41.740;-88.000;2023-02-18T11:06:43;99618.00;;;-3.50;51.98
45991;BME280;31721;41.740;-88.000;2023-02-18T11:09:26;99620.31;;;-3.29;51.80
45991;BME280;31721;41.740;-88.000;2023-02-18T11:12:01;99619.06;;;-2.99;51.60
45991;BME280;31721;41.740;-88.000;2023-02-18T11:14:39;99618.34;;;-2.89;51.27
45991;BME280;31721;41.740;-88.000;2023-02-18T11:17:15;99618.67;;;-3.16;51.65
45991;BME280;31721;41.740;-88.000;2023-02-18T11:19:52;99624.36;;;-3.01;51.39
45991;BME280;31721;41.740;-88.000;2023-02-18T11:22:23;99627.40;;;-2.95;51.33
45991;BME280;31721;41.740;-88.000;2023-02-18T11:24:55;99622.15;;;-2.80;51.06
45991;BME280;31721;41.740;-88.000;2023-02-18T11:27:26;99626.64;;;-2.73;50.80
45991;BME280;31721;41.740;-88.000;2023-02-18T11:29:59;99631.15;;;-2.70;50.92
45991;BME280;31721;41.740;-88.000;2023-02-18T11:32:30;99630.54;;;-2.84;51.16
45991;BME280;31721;41.740;-88.000;2023-02-18T11:35:01;99640.10;;;-2.90;51.43
45991;BME280;31721;41.740;-88.000;2023-02-18T11:37:32;99642.73;;;-2.89;51.25
45991;BME280;31721;41.740;-88.000;2023-02-18T11:40:00;99641.44;;;-2.83;50.98
45991;BME280;31721;41.740;-88.000;2023-02-18T11:42:29;99646.76;;;-2.72;51.05
45991;BME280;31721;41.740;-88.000;2023-02-18T11:44:59;99649.22;;;-2.50;50.97
45991;BME280;31721;41.740;-88.000;2023-02-18T11:47:29;99648.88;;;-2.38;50.73
45991;BME280;31721;41.740;-88.000;2023-02-18T11:50:02;99645.59;;;-2.73;50.94
45991;BME280;31721;41.740;-88.000;2023-02-18T11:52:34;99652.65;;;-2.31;50.49
45991;BME280;31721;41.740;-88.000;2023-02-18T11:55:04;99658.84;;;-2.24;50.52
45991;BME280;31721;41.740;-88.000;2023-02-18T11:57:36;99657.30;;;-2.75;50.75
45991;BME280;31721;41.740;-88.000;2023-02-18T12:00:16;99651.67;;;-2.59;50.95
45991;BME280;31721;41.740;-88.000;2023-02-18T12:02:48;99654.17;;;-2.35;50.51
45991;BME280;31721;41.740;-88.000;2023-02-18T12:05:20;99659.20;;;-2.49;50.93
45991;BME280;31721;41.740;-88.000;2023-02-18T12:07:51;99657.46;;;-2.49;50.98
45991;BME280;31721;41.740;-88.000;2023-02-18T12:10:28;99660.86;;;-2.59;51.33
45991;BME280;31721;41.740;-88.000;2023-02-18T12:13:02;99663.20;;;-2.65;51.23
45991;BME280;31721;41.740;-88.000;2023-02-18T12:15:43;99661.57;;;-2.51;51.06
45991;BME280;31721;41.740;-88.000;2023-02-18T12:18:26;99659.27;;;-2.64;51.39
45991;BME280;31721;41.740;-88.000;2023-02-18T12:21:10;99658.35;;;-2.48;51.09
45991;BME280;31721;41.740;-88.000;2023-02-18T12:23:49;99658.35;;;-2.77;51.49
45991;BME280;31721;41.740;-88.000;2023-02-18T12:26:25;99659.56;;;-2.66;51.60
45991;BME280;31721;41.740;-88.000;2023-02-18T12:29:06;99662.06;;;-2.38;50.98
45991;BME280;31721;41.740;-88.000;2023-02-18T12:31:52;99661.64;;;-2.68;51.53
45991;BME280;31721;41.740;-88.000;2023-02-18T12:34:36;99667.13;;;-2.76;51.69
45991;BME280;31721;41.740;-88.000;2023-02-18T12:37:20;99663.21;;;-2.74;51.40
45991;BME280;31721;41.740;-88.000;2023-02-18T12:40:03;99667.32;;;-2.59;51.36
45991;BME280;31721;41.740;-88.000;2023-02-18T12:42:44;99667.57;;;-2.42;51.40
45991;BME280;31721;41.740;-88.000;2023-02-18T12:45:47;99673.48;;;-2.73;51.55
45991;BME280;31721;41.740;-88.000;2023-02-18T12:48:30;99666.60;;;-2.52;51.52
45991;BME280;31721;41.740;-88.000;2023-02-18T12:51:13;99669.03;;;-2.44;51.33
45991;BME280;31721;41.740;-88.000;2023-02-18T12:53:56;99672.73;;;-2.37;51.22
45991;BME280;31721;41.740;-88.000;2023-02-18T12:56:39;99675.77;;;-2.34;51.11
45991;BME280;31721;41.740;-88.000;2023-02-18T12:59:24;99676.30;;;-2.05;50.63
45991;BME280;31721;41.740;-88.000;2023-02-18T13:02:05;99673.49;;;-2.23;51.09